Flight Track Log - Related Links

Times and Time Zones

All times are in EDT time to prevent confusion due to time zone crossing. See the DAL1708 flight status page for this flight to view local times or setup timezone preferences in your user account.

Time Position Orientation Groundspeed Altitude Reporting Facility
EDT Latitude Longitude Course Direction KTS MPH feet Rate Location/Type
Sat 12:50:23 PM 44.8239 -93.2394 217° Southwest 185 213 2,900  Level Minneapolis Center
Sat 12:51:25 PM 44.7614 -93.3067 217° Southwest 246 283 6,100 3,000 Climbing Minneapolis Center
Sat 12:52:27 PM 44.7222 -93.3919 237° Southwest 272 313 9,100 2,903 Climbing Minneapolis Center
Sat 12:53:29 PM 44.6911 -93.4892 246° West 275 316 12,100 2,274 Climbing Minneapolis Center
Sat 12:54:31 PM 44.6586 -93.5972 247° West 301 346 13,800 2,032 Climbing Minneapolis Center
Sat 12:55:33 PM 44.6069 -93.7478 244° Southwest 359 413 16,300 2,208 Climbing Minneapolis Center
Sat 12:56:36 PM 44.5564 -93.8736 241° Southwest 371 427 18,400 1,920 Climbing Minneapolis Center
Sat 12:57:38 PM 44.5056 -94.0017 241° Southwest 378 435 20,300 1,500 Climbing Minneapolis Center
Sat 12:58:40 PM 44.4519 -94.1361 241° Southwest 393 452 21,500 1,016 Climbing Minneapolis Center
Sat 12:59:42 PM 44.3942 -94.2783 240° Southwest 418 481 22,400 1,016 Climbing Minneapolis Center
Sat 01:00:44 PM 44.3328 -94.4278 240° Southwest 439 505 23,600 1,161 Climbing Minneapolis Center
Sat 01:01:46 PM 44.2586 -94.6125 241° Southwest 454 522 24,800 1,355 Climbing Minneapolis Center
Sat 01:02:48 PM 44.1972 -94.7581 240° Southwest 459 528 26,400 1,403 Climbing Minneapolis Center
Sat 01:03:50 PM 44.1350 -94.9089 240° Southwest 453 521 27,700 1,210 Climbing Minneapolis Center
Sat 01:04:52 PM 44.0733 -95.0611 241° Southwest 452 520 28,900 1,258 Climbing Minneapolis Center
Sat 01:05:54 PM 43.9969 -95.2442 240° Southwest 455 524 30,300 1,355 Climbing Minneapolis Center
Sat 01:06:56 PM 43.9344 -95.3950 240° Southwest 451 519 31,700 823 Climbing Minneapolis Center
Sat 01:07:58 PM 43.8708 -95.5417 239° Southwest 445 512 32,000 145 Climbing Minneapolis Center
Sat 01:09:00 PM 43.8075 -95.6897 239° Southwest 443 510 32,000  Level Minneapolis Center
Sat 01:10:02 PM 43.7442 -95.8364 239° Southwest 442 509 32,000  Level Minneapolis Center
Sat 01:11:04 PM 43.6817 -95.9842 240° Southwest 443 510 32,000  Level Minneapolis Center
Sat 01:12:06 PM 43.6189 -96.1308 239° Southwest 442 509 32,000  Level Minneapolis Center
Sat 01:13:08 PM 43.5444 -96.3053 240° Southwest 439 505 32,000  Level Minneapolis Center
Sat 01:14:10 PM 43.4822 -96.4486 239° Southwest 435 501 32,000  Level Minneapolis Center
Sat 01:15:12 PM 43.4189 -96.5919 239° Southwest 436 502 32,000  Level Minneapolis Center
Sat 01:16:14 PM 43.3564 -96.7375 239° Southwest 439 505 32,000  Level Minneapolis Center
Sat 01:17:16 PM 43.2919 -96.8822 239° Southwest 444 511 32,000  Level Minneapolis Center
Sat 01:18:19 PM 43.2281 -97.0292 239° Southwest 448 516 32,000  Level Minneapolis Center
Sat 01:19:20 PM 43.1772 -97.1442 239° Southwest 446 513 32,000  Level Minneapolis Center
Sat 01:20:23 PM 43.0856 -97.3478 238° Southwest 449 517 32,000  Level Minneapolis Center
Sat 01:21:25 PM 43.0206 -97.4911 238° Southwest 446 513 32,000  Level Minneapolis Center
Sat 01:22:27 PM 42.9544 -97.6347 238° Southwest 447 514 32,000  Level Minneapolis Center
Sat 01:23:29 PM 42.8903 -97.7797 239° Southwest 447 514 32,000  Level Minneapolis Center
Sat 01:24:31 PM 42.8247 -97.9225 238° Southwest 446 513 32,000  Level Minneapolis Center
Sat 01:25:33 PM 42.7586 -98.0608 237° Southwest 440 506 32,000  Level Minneapolis Center
Sat 01:26:35 PM 42.6819 -98.2311 239° Southwest 439 505 32,000  Level Minneapolis Center
Sat 01:27:37 PM 42.6247 -98.3503 237° Southwest 440 506 32,000  Level Minneapolis Center
Sat 01:28:39 PM 42.5472 -98.5167 238° Southwest 436 502 32,000  Level Minneapolis Center
Sat 01:29:41 PM 42.4833 -98.6561 238° Southwest 436 502 32,000  Level Minneapolis Center
Sat 01:30:43 PM 42.4189 -98.7950 238° Southwest 437 503 32,000  Level Minneapolis Center
Sat 01:31:45 PM 42.3578 -98.9336 239° Southwest 432 497 32,000  Level Minneapolis Center
Sat 01:32:47 PM 42.2953 -99.0736 239° Southwest 435 501 32,000  Level Minneapolis Center
Sat 01:33:49 PM 42.2206 -99.2417 239° Southwest 437 503 32,000  Level Minneapolis Center
Sat 01:34:51 PM 42.1572 -99.3811 239° Southwest 438 504 32,000  Level Minneapolis Center
Sat 01:35:53 PM 42.0936 -99.5186 238° Southwest 435 501 32,000  Level Minneapolis Center
Sat 01:36:55 PM 42.0317 -99.6572 239° Southwest 434 499 32,000  Level Minneapolis Center
Sat 01:37:57 PM 41.9678 -99.7942 238° Southwest 433 498 32,000  Level Minneapolis Center
Sat 01:39:00 PM 41.9056 -99.9317 239° Southwest 433 498 32,000  Level Minneapolis Center
Sat 01:40:02 PM 41.8292 -100.0967 238° Southwest 433 498 32,000  Level Minneapolis Center
Sat 01:41:04 PM 41.7639 -100.2344 238° Southwest 436 502 32,000  Level Minneapolis Center
Sat 01:42:06 PM 41.7036 -100.3750 240° Southwest 438 504 32,000  Level Minneapolis Center
Sat 01:43:18 PM 41.6414 -100.5492 244° Southwest 431 496 32,000  Level Denver Center
Sat 01:44:20 PM 41.5839 -100.7119 245° Southwest 435 501 32,000  Level Denver Center
Sat 01:45:22 PM 41.5361 -100.8517 245° Southwest 434 499 32,000  Level Denver Center
Sat 01:46:24 PM 41.4781 -101.0147 245° Southwest 437 503 32,000  Level Denver Center
Sat 01:47:26 PM 41.4286 -101.1536 245° Southwest 436 502 32,000  Level Denver Center
Sat 01:48:28 PM 41.3703 -101.3133 244° Southwest 433 498 32,000  Level Denver Center
Sat 01:49:30 PM 41.3217 -101.4489 245° Southwest 429 494 32,000  Level Denver Center
Sat 01:50:32 PM 41.2642 -101.6089 244° Southwest 430 495 32,000  Level Denver Center
Sat 01:51:35 PM 41.2147 -101.7444 244° Southwest 428 493 32,000  Level Denver Center
Sat 01:52:37 PM 41.1575 -101.9028 244° Southwest 428 493 32,000  Level Denver Center
Sat 01:53:39 PM 41.1069 -102.0375 244° Southwest 428 493 32,000  Level Denver Center
Sat 01:54:41 PM 41.0472 -102.1947 243° Southwest 429 494 32,000  Level Denver Center
Sat 01:55:43 PM 40.9975 -102.3311 244° Southwest 430 495 32,000  Level Denver Center
Sat 01:56:45 PM 40.9464 -102.4678 244° Southwest 432 497 32,000  Level Denver Center
Sat 01:57:47 PM 40.8869 -102.6233 243° Southwest 426 490 32,000  Level Denver Center
Sat 01:58:49 PM 40.8367 -102.7561 243° Southwest 424 488 32,000  Level Denver Center
Sat 01:59:51 PM 40.7789 -102.9122 244° Southwest 423 487 32,000  Level Denver Center
Sat 02:00:53 PM 40.7231 -103.0583 243° Southwest 423 487 32,000  Level Denver Center
Sat 02:01:55 PM 40.6722 -103.1969 244° Southwest 421 484 32,000  Level Denver Center
Sat 02:02:57 PM 40.6200 -103.3358 244° Southwest 423 487 32,000 -339 Level Denver Center
Sat 02:03:59 PM 40.5664 -103.4733 243° Southwest 424 488 31,300 -1,984 Descending Denver Center
Sat 02:05:01 PM 40.5122 -103.6111 243° Southwest 427 491 27,900 -3,194 Descending Denver Center
Sat 02:06:03 PM 40.4469 -103.7836 244° Southwest 443 510 24,700 -2,806 Descending Denver Center
Sat 02:07:05 PM 40.3972 -103.9125 243° Southwest 408 470 22,100 -2,146 Descending Denver Center
Sat 02:08:20 PM 40.3150 -104.0536 233° Southwest 400 460 19,800 -1,752 Descending Denver Center
Sat 02:09:22 PM 40.2258 -104.1486 219° Southwest 388 447 18,100 -1,984 Descending Denver Center
Sat 02:10:24 PM 40.1478 -104.2347 220° Southwest 369 425 15,700 -1,839 Descending Denver Center
Sat 02:11:26 PM 40.0625 -104.3256 219° Southwest 368 423 14,300 -1,210 Descending Denver Center
Sat 02:12:28 PM 39.9908 -104.4028 220° Southwest 340 391 13,200 -919 Descending Denver Center
Sat 02:13:30 PM 39.9231 -104.4756 219° Southwest 297 342 12,400 -919 Descending Denver Center
Sat 02:14:32 PM 39.8475 -104.5019 195° South 283 326 11,300 -726 Descending Denver Center
Sat 02:15:34 PM 39.7753 -104.5036 181° South 260 299 10,900 -677 Descending Denver Center
Sat 02:16:36 PM 39.7000 -104.5050 181° South 251 289 9,900 -1,306 Descending Denver Center
Sat 02:17:38 PM 39.6486 -104.5464 212° Southwest 248 285 8,200 -1,645 Descending Denver Center

Login

Don't have an account? Register now (free) for customized features, flight alerts, and more!